^^
Station Historical Data
Daily Summary for January 15, 2018 Units:  Metric    English   Both
« Previous Day
Next Day »
Daily Weekly Monthly Yearly Custom
  High: Low: Average:
Temperature: -17.8 °C 16.3 °C 22.6 °C
Dew Point: -17.8 °C -11.3 °C 5.6 °C
Humidity: Humidity% 5% 40%
Wind Speed: 0km/h 0km/h 18.3km/h
Wind Gust: 0km/h - -
Wind- - SSW
Pressure: 0 hPa 1007.3 hPa -
Precipitation: 0 mm    
Historical Graphs
 
 
Tabular Data for January 15, 2018
Time Temperature Dew Point Pressure Wind Wind Speed Wind Gust Humidity Rainfall Rate (Hourly) solar Conditions
-17.8 °C -17.8 °C 0 hPa Calm     Humidity% 0 mm SolarRadiationWatts/m^2 W/m2 Conditions
00:07 21 °C 6.5 °C 1009.4 hPa South 32 km/h 35.4 km/h 39% 0 mm 0.0 W/m2
00:12 21 °C 6.5 °C 1009.4 hPa SSW 28.8 km/h 35.4 km/h 39% 0 mm 0.0 W/m2
00:22 20.8 °C 6.7 °C 1009.4 hPa South 22.7 km/h 32.2 km/h 40% 0 mm 0.0 W/m2
00:27 20.8 °C 6.7 °C 1009.4 hPa SSW 19.5 km/h 29 km/h 40% 0 mm 0.0 W/m2
00:32 20.7 °C 6.6 °C 1009.4 hPa South 28.8 km/h 38.6 km/h 40% 0 mm 0.0 W/m2
00:37 20.6 °C 6.9 °C 1009.4 hPa SSW 24.1 km/h 33.8 km/h 41% 0 mm 0.0 W/m2
00:52 20.3 °C 7.3 °C 1009.4 hPa SSW 24.1 km/h 37 km/h 43% 0 mm 0.0 W/m2
01:02 20.2 °C 7.6 °C 1009 hPa SSW 30.6 km/h 32.2 km/h 44% 0 mm 0.0 W/m2
01:07 20.1 °C 7.8 °C 1009 hPa SSW 32 km/h 32.2 km/h 45% 0 mm 0.0 W/m2
01:17 19.8 °C 7.8 °C 1009.4 hPa SSW 24.1 km/h 33.8 km/h 46% 0 mm 0.0 W/m2
01:22 19.8 °C 7.8 °C 1009.7 hPa South 25.9 km/h 32.2 km/h 46% 0 mm 0.0 W/m2
01:27 19.8 °C 7.8 °C 1009.7 hPa SSW 14.3 km/h 22.5 km/h 46% 0 mm 0.0 W/m2
01:38 19.7 °C 7.8 °C 1009.7 hPa SSW 16.3 km/h 27.4 km/h 46% 0 mm 0.0 W/m2
01:53 19.4 °C 7.8 °C 1009.4 hPa South 20.9 km/h 27.4 km/h 47% 0 mm 0.0 W/m2
01:58 19.3 °C 7.7 °C 1009.4 hPa SSW 25.9 km/h 29 km/h 47% 0 mm 0.0 W/m2
02:07 19.2 °C 7.9 °C 1009.4 hPa South 19.5 km/h 25.7 km/h 48% 0 mm 0.0 W/m2
02:13 19.1 °C 8.1 °C 1009.7 hPa South 17.7 km/h 17.7 km/h 49% 0 mm 0.0 W/m2
02:18 19 °C 8 °C 1009.4 hPa South 19.5 km/h 27.4 km/h 49% 0 mm 0.0 W/m2
02:23 18.9 °C 8.2 °C 1009.4 hPa South 17.7 km/h 20.9 km/h 50% 0 mm 0.0 W/m2
02:28 18.8 °C 8.2 °C 1009.4 hPa South 20.9 km/h 25.7 km/h 50% 0 mm 0.0 W/m2
02:33 18.8 °C 8.2 °C 1009.7 hPa South 22.7 km/h 25.7 km/h 50% 0 mm 0.0 W/m2
02:38 18.7 °C 8.4 °C 1009.4 hPa SSW 28.8 km/h 29 km/h 51% 0 mm 0.0 W/m2
02:43 18.7 °C 8.4 °C 1009.7 hPa South 20.9 km/h 22.5 km/h 51% 0 mm 0.0 W/m2
02:48 18.6 °C 8.6 °C 1009.7 hPa SSW 20.9 km/h 24.1 km/h 52% 0 mm 0.0 W/m2
02:53 18.6 °C 8.6 °C 1009.4 hPa South 24.1 km/h 30.6 km/h 52% 0 mm 0.0 W/m2
02:58 18.5 °C 8.5 °C 1009.4 hPa South 24.1 km/h 27.4 km/h 52% 0 mm 0.0 W/m2
03:03 18.4 °C 8.6 °C 1009.4 hPa South 19.5 km/h 25.7 km/h 53% 0 mm 0.0 W/m2
03:08 18.3 °C 8.6 °C 1009.4 hPa SSW 16.3 km/h 20.9 km/h 53% 0 mm 0.0 W/m2
03:13 18.3 °C 8.6 °C 1009.4 hPa South 22.7 km/h 22.7 km/h 53% 0 mm 0.0 W/m2
03:18 18.2 °C 8.7 °C 1009 hPa South 19.5 km/h 24.1 km/h 54% 0 mm 0.0 W/m2
03:28 18.1 °C 8.6 °C 1009 hPa SSW 17.7 km/h 27.4 km/h 54% 0 mm 0.0 W/m2
03:33 18.1 °C 8.9 °C 1009 hPa South 14.3 km/h 24.1 km/h 55% 0 mm 0.0 W/m2
03:38 18 °C 8.8 °C 1009 hPa SSW 20.9 km/h 25.7 km/h 55% 0 mm 0.0 W/m2
03:43 17.9 °C 8.7 °C 1009 hPa SSW 19.5 km/h 29 km/h 55% 0 mm 0.0 W/m2
03:48 17.9 °C 9 °C 1009 hPa SSW 22.7 km/h 32.2 km/h 56% 0 mm 0.0 W/m2
03:53 17.9 °C 9 °C 1009 hPa SSW 25.9 km/h 29 km/h 56% 0 mm 0.0 W/m2
03:58 17.8 °C 8.9 °C 1009 hPa South 20.9 km/h 30.6 km/h 56% 0 mm 0.0 W/m2
04:03 17.8 °C 8.9 °C 1009 hPa South 17.7 km/h 22.5 km/h 56% 0 mm 0.0 W/m2
04:08 17.7 °C 9.1 °C 1009 hPa SSW 16.3 km/h 22.5 km/h 57% 0 mm 0.0 W/m2
04:13 17.6 °C 9 °C 1009 hPa SSW 14.3 km/h 25.7 km/h 57% 0 mm 0.0 W/m2
04:18 17.6 °C 9.2 °C 1009 hPa South 22.7 km/h 27.4 km/h 58% 0 mm 0.0 W/m2
04:23 17.5 °C 9.1 °C 1009 hPa SW 22.7 km/h 25.7 km/h 58% 0 mm 0.0 W/m2
04:28 17.4 °C 9.3 °C 1009 hPa SSW 17.7 km/h 24.1 km/h 59% 0 mm 0.0 W/m2
04:34 17.4 °C 9.3 °C 1009 hPa SSW 14.3 km/h 20.9 km/h 59% 0 mm 0.0 W/m2
04:39 17.3 °C 9.2 °C 1009 hPa SSW 17.7 km/h 19.3 km/h 59% 0 mm 0.0 W/m2
04:44 17.3 °C 9.5 °C 1009 hPa South 16.3 km/h 20.9 km/h 60% 0 mm 0.0 W/m2
04:54 17.2 °C 9.6 °C 1009 hPa SSW 20.9 km/h 29 km/h 61% 0 mm 0.0 W/m2
05:04 17.1 °C 9.5 °C 1009 hPa South 13 km/h 25.7 km/h 61% 0 mm 0.0 W/m2
05:09 17.1 °C 9.8 °C 1009 hPa South 19.5 km/h 19.5 km/h 62% 0 mm 0.0 W/m2
05:14 17 °C 9.7 °C 1009.4 hPa South 20.9 km/h 25.7 km/h 62% 0 mm 0.0 W/m2
05:19 17 °C 9.4 °C 1009.4 hPa South 27.4 km/h 27.4 km/h 61% 0 mm 0.0 W/m2
05:24 17 °C 9.4 °C 1009.7 hPa South 24.1 km/h 25.7 km/h 61% 0 mm 0.0 W/m2
05:29 16.9 °C 9.6 °C 1009.7 hPa South 24.1 km/h 25.7 km/h 62% 0 mm 0.0 W/m2
05:39 16.8 °C 9.5 °C 1010 hPa SSW 22.7 km/h 29 km/h 62% 0 mm 0.0 W/m2
05:44 16.8 °C 9.7 °C 1010 hPa SSW 16.3 km/h 25.7 km/h 63% 0 mm 0.0 W/m2
05:49 16.7 °C 9.6 °C 1010 hPa South 19.5 km/h 27.4 km/h 63% 0 mm 0.0 W/m2
05:54 16.6 °C 9.5 °C 1010.4 hPa SSW 17.7 km/h 25.7 km/h 63% 0 mm 0.0 W/m2
05:59 16.6 °C 9.5 °C 1010.4 hPa South 16.3 km/h 24.1 km/h 63% 0 mm 0.0 W/m2
06:04 16.6 °C 9.5 °C 1010.7 hPa South 16.3 km/h 16.3 km/h 63% 0 mm 0.0 W/m2
06:09 16.4 °C 9.6 °C 1010.7 hPa South 13 km/h 22.5 km/h 64% 0 mm 0.0 W/m2
06:14 16.4 °C 9.6 °C 1010.7 hPa South 17.7 km/h 20.9 km/h 64% 0 mm 5.0 W/m2
06:19 16.3 °C 9.5 °C 1011.1 hPa South 20.9 km/h 20.9 km/h 64% 0 mm 9.0 W/m2
06:29 16.3 °C 9.5 °C 1010.7 hPa South 19.5 km/h 20.9 km/h 64% 0 mm 14.0 W/m2
06:34 16.3 °C 9.5 °C 1010.7 hPa SSW 14.3 km/h 24.1 km/h 64% 0 mm 18.0 W/m2
06:39 16.3 °C 9.5 °C 1010.7 hPa SSW 14.3 km/h 25.7 km/h 64% 0 mm 42.0 W/m2
06:44 16.3 °C 9.5 °C 1011.1 hPa SSW 22.7 km/h 24.1 km/h 64% 0 mm 35.0 W/m2
06:50 16.3 °C 9.5 °C 1011.4 hPa South 17.7 km/h 19.3 km/h 64% 0 mm 72.0 W/m2
06:56 16.4 °C 9.6 °C 1011.4 hPa SSW 17.7 km/h 17.7 km/h 64% 0 mm 76.0 W/m2
07:12 16.6 °C 9.8 °C 1011.7 hPa SSW 14.3 km/h 20.9 km/h 64% 0 mm 155.0 W/m2
07:20 16.8 °C 10 °C 1011.7 hPa SSW 17.7 km/h 20.9 km/h 64% 0 mm 121.0 W/m2
07:30 17.1 °C 9.8 °C 1012.1 hPa South 14.3 km/h 22.5 km/h 62% 0 mm 246.0 W/m2
07:36 17.2 °C 9.6 °C 1012.1 hPa South 17.7 km/h 22.5 km/h 61% 0 mm 267.0 W/m2
07:43 17.3 °C 9.2 °C 1012.1 hPa South 17.7 km/h 22.5 km/h 59% 0 mm 221.0 W/m2
08:06 17.7 °C 8.8 °C 1012.1 hPa SSW 20.9 km/h 22.5 km/h 56% 0 mm 338.0 W/m2
08:20 18.2 °C 9.3 °C 1012.1 hPa SSW 17.7 km/h 20.9 km/h 56% 0 mm 390.0 W/m2
08:30 18.4 °C 9.2 °C 1012.4 hPa SSW 17.7 km/h 20.9 km/h 55% 0 mm 422.0 W/m2
08:45 19 °C 9.5 °C 1012.1 hPa SSW 19.5 km/h 24.1 km/h 54% 0 mm 475.0 W/m2
08:52 19.4 °C 9.6 °C 1012.1 hPa South 17.7 km/h 22.5 km/h 53% 0 mm 510.0 W/m2
09:00 19.9 °C 9.5 °C 1012.1 hPa SSW 20.9 km/h 24.1 km/h 51% 0 mm 541.0 W/m2
09:05 20.1 °C 9.4 °C 1012.1 hPa SSW 19.5 km/h 24.1 km/h 50% 0 mm 559.0 W/m2
09:11 20.2 °C 9.4 °C 1011.7 hPa SSW 16.3 km/h 20.9 km/h 50% 0 mm 573.0 W/m2
09:17 20.4 °C 9.6 °C 1011.7 hPa South 16.3 km/h 20.9 km/h 50% 0 mm 592.0 W/m2
09:26 20.8 °C 9.4 °C 1011.7 hPa SSW 16.3 km/h 19.3 km/h 48% 0 mm 624.0 W/m2
09:31 21.1 °C 9.3 °C 1011.7 hPa SW 14.3 km/h 19.3 km/h 47% 0 mm 640.0 W/m2
09:38 21.3 °C 9.5 °C 1011.7 hPa SSW 13 km/h 16.1 km/h 47% 0 mm 654.0 W/m2
09:51 21.8 °C 9.3 °C 1011.7 hPa SSW 17.7 km/h 22.5 km/h 45% 0 mm 684.0 W/m2
10:04 22.6 °C 9 °C 1011.7 hPa SW 14.3 km/h 20.9 km/h 42% 0 mm 724.0 W/m2
10:11 23.1 °C 8.8 °C 1011.4 hPa SW 20.9 km/h 20.9 km/h 40% 0 mm 740.0 W/m2
10:18 23.3 °C 8.9 °C 1011.4 hPa SW 20.9 km/h 20.9 km/h 40% 0 mm 768.0 W/m2
10:26 24.1 °C 8.5 °C 1011.4 hPa SSW 19.5 km/h 24.1 km/h 37% 0 mm 795.0 W/m2
10:31 24.5 °C 8 °C 1011.4 hPa SSW 20.9 km/h 20.9 km/h 35% 0 mm 809.0 W/m2
10:37 24.8 °C 8.3 °C 1011.1 hPa SW 16.3 km/h 29 km/h 35% 0 mm 819.0 W/m2
10:42 24.9 °C 7.5 °C 1011.1 hPa SSW 19.5 km/h 20.9 km/h 33% 0 mm 826.0 W/m2
10:51 25.3 °C 7 °C 1011.1 hPa SSW 13 km/h 22.5 km/h 31% 0 mm 853.0 W/m2
11:01 25.9 °C 6 °C 1011.1 hPa SSE 11.1 km/h 19.3 km/h 28% 0 mm 875.0 W/m2
11:07 26.2 °C 6.2 °C 1010.7 hPa South 14.3 km/h 22.5 km/h 28% 0 mm 886.0 W/m2
11:17 26.9 °C 5.2 °C 1010.7 hPa South 17.7 km/h 24.1 km/h 25% 0 mm 905.0 W/m2
11:22 27.2 °C 5.5 °C 1010.7 hPa South 13 km/h 17.7 km/h 25% 0 mm 911.0 W/m2
11:27 27.4 °C 5 °C 1010.7 hPa SSW 17.7 km/h 22.5 km/h 24% 0 mm 919.0 W/m2
11:33 27.3 °C 5 °C 1010.7 hPa SSW 13 km/h 22.5 km/h 24% 0 mm 926.0 W/m2
12:08 28.4 °C 4.6 °C 1010.4 hPa South 24.1 km/h 32.2 km/h 22% 0 mm 963.0 W/m2
12:23 28.9 °C 4.4 °C 1010.4 hPa SSW 17.7 km/h 24.1 km/h 21% 0 mm 977.0 W/m2
12:38 29.3 °C 4.7 °C 1010 hPa SW 20.9 km/h 29 km/h 21% 0 mm 983.0 W/m2
12:54 29.8 °C 4.4 °C 1010 hPa South 14.3 km/h 22.5 km/h 20% 0 mm 986.0 W/m2
13:06 30.5 °C 2.7 °C 1009.7 hPa South 14.3 km/h 30.6 km/h 17% 0 mm 990.0 W/m2
13:15 31 °C 2.2 °C 1009.7 hPa South 13 km/h 27.4 km/h 16% 0 mm 984.0 W/m2
13:22 31.2 °C 1.5 °C 1009.7 hPa SSE 14.3 km/h 19.3 km/h 15% 0 mm 984.0 W/m2
13:27 31.4 °C 2.6 °C 1009.7 hPa SSE 9.7 km/h 22.5 km/h 16% 0 mm 979.0 W/m2
13:32 31.8 °C -1.1 °C 1009.4 hPa SSE 20.9 km/h 25.7 km/h 12% 0 mm 983.0 W/m2
13:37 31.9 °C -2.2 °C 1009.4 hPa SSE 19.5 km/h 24.1 km/h 11% 0 mm 983.0 W/m2
13:47 32.4 °C -3.1 °C 1009 hPa Calm   17.7 km/h 10% 0 mm 972.0 W/m2
14:08 32.7 °C -4.3 °C 1009 hPa SSE 14.3 km/h 14.5 km/h 9% 0 mm 953.0 W/m2
14:44 33.3 °C -7.2 °C 1008.7 hPa South 13 km/h 16.1 km/h 7% 0 mm 904.0 W/m2
14:50 33.6 °C -11.2 °C 1008.7 hPa SSE 19.5 km/h 25.7 km/h 5% 0 mm 891.0 W/m2
15:06 33.5 °C -11.3 °C 1008.7 hPa Calm   9.7 km/h 5% 0 mm 867.0 W/m2
15:17 33.8 °C -8.8 °C 1008.4 hPa SSE 19.5 km/h 29 km/h 6% 0 mm 838.0 W/m2
16:50 33.9 °C -6.7 °C 1007.3 hPa South 24.1 km/h 27.4 km/h 7% 0 mm 582.0 W/m2
17:19 34 °C -6.7 °C 1007.3 hPa South 24.1 km/h 24.1 km/h 7% 0 mm 485.0 W/m2
17:59 33.4 °C -7.1 °C 1007.3 hPa South 14.3 km/h 25.7 km/h 7% 0 mm 341.0 W/m2
18:27 33.1 °C -7.3 °C 1007.3 hPa SSW 17.7 km/h 32.2 km/h 7% 0 mm 234.0 W/m2
18:56 32.6 °C -7.7 °C 1007.3 hPa South 16.3 km/h 22.5 km/h 7% 0 mm 107.0 W/m2
19:01 32.6 °C -7.7 °C 1007.7 hPa South 20.9 km/h 27.4 km/h 7% 0 mm 91.0 W/m2
19:07 32.4 °C -6.1 °C 1007.7 hPa South 20.9 km/h 25.7 km/h 8% 0 mm 74.0 W/m2
19:21 32.1 °C -6.3 °C 1007.7 hPa South 20.9 km/h 20.9 km/h 8% 0 mm 19.0 W/m2
19:26 31.9 °C -8.2 °C 1007.7 hPa South 16.3 km/h 22.5 km/h 7% 0 mm 16.0 W/m2
19:53 31.1 °C -5.5 °C 1008 hPa South 17.7 km/h 25.7 km/h 9% 0 mm 0.0 W/m2
20:03 30.8 °C -5.7 °C 1008 hPa South 19.5 km/h 20.9 km/h 9% 0 mm 0.0 W/m2
20:22 30.4 °C -4.6 °C 1008.4 hPa South 16.3 km/h 19.3 km/h 10% 0 mm 0.0 W/m2
20:36 30 °C -4.9 °C 1008.4 hPa South 11.1 km/h 16.1 km/h 10% 0 mm 0.0 W/m2
20:46 29.8 °C -5.1 °C 1008.4 hPa South 13 km/h 14.5 km/h 10% 0 mm 0.0 W/m2
20:51 29.6 °C -4 °C 1008.4 hPa South 14.3 km/h 19.3 km/h 11% 0 mm 0.0 W/m2
20:56 29.4 °C -4.1 °C 1008.7 hPa South 14.3 km/h 16.1 km/h 11% 0 mm 0.0 W/m2
21:01 29.3 °C -4.2 °C 1008.7 hPa South 13 km/h 19.3 km/h 11% 0 mm 0.0 W/m2
21:07 29.2 °C -4.3 °C 1008.7 hPa South 11.1 km/h 16.1 km/h 11% 0 mm 0.0 W/m2
21:17 28.9 °C -4.5 °C 1008.7 hPa South 14.3 km/h 14.5 km/h 11% 0 mm 0.0 W/m2
21:22 28.8 °C -4.6 °C 1008.7 hPa South 11.1 km/h 16.1 km/h 11% 0 mm 0.0 W/m2
21:43 27.4 °C 7.3 °C 1009 hPa SSW 20.9 km/h 27.4 km/h 28% 0 mm 0.0 W/m2
21:52 26.9 °C 7.9 °C 1009 hPa SSW 22.7 km/h 24.1 km/h 30% 0 mm 0.0 W/m2
21:57 26.7 °C 8.2 °C 1009 hPa SSW 17.7 km/h 27.4 km/h 31% 0 mm 0.0 W/m2
22:02 26.4 °C 8.4 °C 1009 hPa SSW 16.3 km/h 25.7 km/h 32% 0 mm 0.0 W/m2
22:12 26.1 °C 8.6 °C 1009.4 hPa SSW 16.3 km/h 20.9 km/h 33% 0 mm 0.0 W/m2
22:17 26 °C 8.5 °C 1009.4 hPa SSW 16.3 km/h 22.5 km/h 33% 0 mm 0.0 W/m2
22:37 25.5 °C 8.9 °C 1009.4 hPa SSW 14.3 km/h 22.5 km/h 35% 0 mm 0.0 W/m2
22:47 25.3 °C 8.7 °C 1009.4 hPa SSW 16.3 km/h 20.9 km/h 35% 0 mm 0.0 W/m2
22:52 25.2 °C 8.6 °C 1009.4 hPa SSW 19.5 km/h 24.1 km/h 35% 0 mm 0.0 W/m2
23:02 25.1 °C 9 °C 1009.4 hPa SSW 19.5 km/h 24.1 km/h 36% 0 mm 0.0 W/m2
23:12 24.8 °C 9.1 °C 1009.4 hPa SSW 19.5 km/h 24.1 km/h 37% 0 mm 0.0 W/m2
23:17 24.7 °C 9 °C 1009.4 hPa SSW 17.7 km/h 24.1 km/h 37% 0 mm 0.0 W/m2
23:22 24.6 °C 9.3 °C 1009.4 hPa SSW 17.7 km/h 24.1 km/h 38% 0 mm 0.0 W/m2
23:27 24.5 °C 9.2 °C 1009.4 hPa SSW 19.5 km/h 24.1 km/h 38% 0 mm 0.0 W/m2
23:32 24.4 °C 9.5 °C 1009.4 hPa SSW 14.3 km/h 24.1 km/h 39% 0 mm 0.0 W/m2
23:42 24.2 °C 9.4 °C 1009.4 hPa SW 19.5 km/h 24.1 km/h 39% 0 mm 0.0 W/m2
23:47 24.2 °C 9.4 °C 1009.4 hPa SW 14.3 km/h 20.9 km/h 39% 0 mm 0.0 W/m2
Canyon Roadhouse, Fishriver Canyon, Namibia
Compliments of Weather Underground - 2.5 mb